Darstellungsparameter: Aktuell verwendete Einstellungen:
Skalierung der Graphiken ... ?
xyx+y,   Skalierungsfaktor:      Skalierung: Modus: x, Faktor: 1
Darstellungszeitraum ... ?
Vom - - bis: - -   Zeitraum: 15.06.2021 - 15.06.2021
Min/Max/Avg-Anzeige ... ?
Zeige MMA aktuell
Zeige MMA Monat
Zeige MMA alles
Zeige --A aktuell
Zeige --A Monat
Zeige --A alles
Keine MMA-Anzeige
MMA:
Average (ber die Originaldaten)
MMA-Basis: 15.06.2021 - 15.06.2021
Quicknavigation für Darstellung... ?
Tage:      1T, 2T, 3T, 5T -1T -2T -3T -5T +1T +2T +3T +5T
Wochen: 1W, 2W, 3W -1W -2W -3W +1W +2W +3W
Monate: 1M, 3M, 6M -1M -3M -6M +1M +3M +6M
Jahre:    1J, 3J, 5J, 10J -1J -3J -5J -10J +1J +3J +5J +10J
Nutze für die Darstellung ... ?
Originaldaten oder Mittelwerte auf ...
Stundenbasis Tagesbasis Wochenbasis
Monatsbasis Jahresbasis      Datenbasis: Original-Daten
Darstellen als:
Statistik (Auto) Statistik J:M      Darstellung:

Der gewünschte Datumsbereich war nicht gültig/verfügbar und wurde korrigiert....
Das angegebene Enddatum (29.09.2021 23:59:59) liegt in der Zukunft.
Das angegebene Startdatum (29.09.2021 00:00:00) liegt in der Zukunft.


Zur Graphik,    zurück zur Übersicht aller Sensoren.
 
Tabellarische Datenbersicht: ?
 
Sensor: Nr:Datum:Temp:Abs-Feuchte:Windchill:Wind:
Aussen-T/F 1 15-06-2021 02:00:00 15.5 C 11.24 g/m*3 15.5 C 1.6 km/h
2 15-06-2021 02:05:00 15.4 C 11.17 g/m*3 15.4 C 0 km/h
3 15-06-2021 02:10:00 15.3 C 11.23 g/m*3 15.3 C 1.6 km/h
4 15-06-2021 02:15:00 15.3 C 11.23 g/m*3 15.3 C 1.6 km/h
5 15-06-2021 02:20:00 15.3 C 11.23 g/m*3 15.3 C 0 km/h
6 15-06-2021 02:25:00 15.3 C 11.36 g/m*3 15.3 C 0 km/h
7 15-06-2021 02:30:00 15.3 C 11.23 g/m*3 15.3 C 0 km/h
8 15-06-2021 02:35:00 15.2 C 11.16 g/m*3 15.2 C 3.2 km/h
9 15-06-2021 02:40:00 15.2 C 11.29 g/m*3 15.2 C 0 km/h
10 15-06-2021 02:45:00 15.1 C 11.22 g/m*3 15.1 C 0 km/h
11 15-06-2021 02:50:00 15.1 C 11.22 g/m*3 15.1 C 0 km/h
12 15-06-2021 02:55:00 14.9 C 11.09 g/m*3 14.9 C 0 km/h
13 15-06-2021 03:00:00 14.9 C 11.09 g/m*3 14.9 C 0 km/h
14 15-06-2021 03:05:00 14.8 C 11.15 g/m*3 14.8 C 0 km/h
15 15-06-2021 03:10:00 14.8 C 11.02 g/m*3 14.8 C 0 km/h
16 15-06-2021 03:15:00 14.7 C 10.95 g/m*3 14.7 C 0 km/h
17 15-06-2021 03:20:00 14.6 C 11.01 g/m*3 14.6 C 1.6 km/h
18 15-06-2021 03:25:00 14.6 C 11.01 g/m*3 14.6 C 3.2 km/h
19 15-06-2021 03:30:00 14.6 C 11.01 g/m*3 14.6 C 4.8 km/h
20 15-06-2021 03:35:00 14.5 C 10.94 g/m*3 14.5 C 0 km/h
21 15-06-2021 03:40:00 14.4 C 11 g/m*3 14.4 C 0 km/h
22 15-06-2021 03:45:00 14.4 C 11 g/m*3 14.4 C 0 km/h
23 15-06-2021 03:50:00 14.5 C 11.07 g/m*3 14.5 C 4.8 km/h
24 15-06-2021 03:55:00 14.5 C 11.19 g/m*3 14.5 C 0 km/h
25 15-06-2021 04:00:00 14.6 C 11.14 g/m*3 14.6 C 0 km/h
Sensor: Nr:Datum:Temp:Abs-Feuchte:Windchill:Wind:
Aussen-T/F 26 15-06-2021 04:05:00 14.5 C 11.07 g/m*3 14.5 C 1.6 km/h
27 15-06-2021 04:10:00 14.4 C 11 g/m*3 14.4 C 0 km/h
28 15-06-2021 04:15:00 14.3 C 11.06 g/m*3 14.3 C 0 km/h
29 15-06-2021 04:20:00 14.3 C 11.06 g/m*3 14.3 C 0 km/h
30 15-06-2021 04:25:00 14.3 C 11.06 g/m*3 14.3 C 0 km/h
31 15-06-2021 04:30:00 14.2 C 10.99 g/m*3 14.2 C 0 km/h
32 15-06-2021 04:35:00 14.1 C 10.92 g/m*3 14.1 C 0 km/h
33 15-06-2021 04:40:00 14.1 C 10.92 g/m*3 14.1 C 0 km/h
34 15-06-2021 04:45:00 14 C 10.98 g/m*3 14 C 0 km/h
35 15-06-2021 04:50:00 13.9 C 10.91 g/m*3 13.9 C 0 km/h
36 15-06-2021 04:55:00 13.9 C 10.91 g/m*3 13.9 C 0 km/h
37 15-06-2021 05:00:00 13.8 C 10.84 g/m*3 13.8 C 0 km/h
38 15-06-2021 05:05:00 13.8 C 10.84 g/m*3 13.8 C 0 km/h
39 15-06-2021 05:10:00 13.8 C 10.96 g/m*3 13.8 C 0 km/h
40 15-06-2021 05:15:00 13.8 C 10.96 g/m*3 13.8 C 0 km/h
41 15-06-2021 05:20:00 13.8 C 10.96 g/m*3 13.8 C 0 km/h
42 15-06-2021 05:25:00 13.7 C 10.89 g/m*3 13.7 C 1.6 km/h
43 15-06-2021 05:30:00 13.7 C 10.89 g/m*3 13.7 C 0 km/h
44 15-06-2021 05:35:00 13.7 C 10.89 g/m*3 13.7 C 0 km/h
45 15-06-2021 05:40:00 13.7 C 10.89 g/m*3 13.7 C 0 km/h
46 15-06-2021 05:45:00 13.7 C 10.89 g/m*3 13.7 C 0 km/h
47 15-06-2021 05:50:00 13.7 C 10.89 g/m*3 13.7 C 0 km/h
48 15-06-2021 05:55:00 13.7 C 10.89 g/m*3 13.7 C 0 km/h
49 15-06-2021 06:00:00 13.7 C 10.89 g/m*3 13.7 C 0 km/h
50 15-06-2021 06:05:00 13.7 C 11.01 g/m*3 13.7 C 0 km/h
Sensor: Nr:Datum:Temp:Abs-Feuchte:Windchill:Wind:
Aussen-T/F 51 15-06-2021 06:10:00 13.7 C 11.01 g/m*3 13.7 C 0 km/h
52 15-06-2021 06:15:00 13.7 C 11.01 g/m*3 13.7 C 0 km/h
53 15-06-2021 06:20:00 13.7 C 11.01 g/m*3 13.7 C 0 km/h
54 15-06-2021 06:25:00 13.8 C 11.08 g/m*3 13.8 C 0 km/h
55 15-06-2021 06:30:00 13.8 C 11.08 g/m*3 13.8 C 0 km/h
56 15-06-2021 06:35:00 13.9 C 11.15 g/m*3 13.9 C 0 km/h
57 15-06-2021 06:40:00 14 C 11.22 g/m*3 14 C 0 km/h
58 15-06-2021 06:45:00 14.1 C 11.41 g/m*3 14.1 C 0 km/h
59 15-06-2021 06:50:00 14.2 C 11.36 g/m*3 14.2 C 0 km/h
60 15-06-2021 06:55:00 14.3 C 11.55 g/m*3 14.3 C 0 km/h
61 15-06-2021 07:00:00 14.4 C 11.62 g/m*3 14.4 C 0 km/h
62 15-06-2021 07:05:00 14.6 C 11.76 g/m*3 14.6 C 0 km/h
63 15-06-2021 07:10:00 14.6 C 11.76 g/m*3 14.6 C 0 km/h
64 15-06-2021 07:15:00 14.7 C 11.83 g/m*3 14.7 C 0 km/h
65 15-06-2021 07:20:00 14.8 C 11.91 g/m*3 14.8 C 0 km/h
66 15-06-2021 07:25:00 14.9 C 11.85 g/m*3 14.9 C 0 km/h
67 15-06-2021 07:30:00 15.1 C 12 g/m*3 15.1 C 0 km/h
68 15-06-2021 07:35:00 15.2 C 12.07 g/m*3 15.2 C 0 km/h
69 15-06-2021 07:40:00 15.3 C 12.14 g/m*3 15.3 C 0 km/h
70 15-06-2021 07:45:00 15.3 C 12.14 g/m*3 15.3 C 0 km/h
71 15-06-2021 07:50:00 15.4 C 12.09 g/m*3 15.4 C 3.2 km/h
72 15-06-2021 07:55:00 15.6 C 12.23 g/m*3 15.6 C 3.2 km/h
73 15-06-2021 08:00:00 15.8 C 12.25 g/m*3 15.8 C 3.2 km/h
74 15-06-2021 08:05:00 15.9 C 12.19 g/m*3 15.9 C 3.2 km/h
75 15-06-2021 08:10:00 16.1 C 12.2 g/m*3 16.1 C 0 km/h
Sensor: Nr:Datum:Temp:Abs-Feuchte:Windchill:Wind:
Aussen-T/F 76 15-06-2021 08:15:00 16.3 C 12.35 g/m*3 16.3 C 1.6 km/h
77 15-06-2021 08:20:00 16.4 C 12.28 g/m*3 16.4 C 1.6 km/h
78 15-06-2021 08:25:00 16.7 C 12.51 g/m*3 16.7 C 1.6 km/h

Legende:
   Min
   Max


Maximal/Minimal-Werte vom 15.06.2021 - 15.06.2021

Sensor Min Max Avg
Temp
(Aussen-T/F)
13.7 °C
15-06-2021  05:25:00
16.7 °C
15-06-2021  08:25:00
14.58 °C
Abs-Feuchte
(Aussen-T/F)
10.84 g/m*3
15-06-2021  05:00:00
12.51 g/m*3
15-06-2021  08:25:00
11.15 g/m*3
Windchill
(Aussen-T/F)
13.7 C
15-06-2021  05:25:00
16.7 C
15-06-2021  08:25:00
14.4 C

Die Daten stammen von einer Davis Vantage Pro 2 Wetter-Station und werden unter Linux mit der Software wview2wettercgi und aufbereitet. Alle Angaben erfolgen ohne Gewähr für ihre Vollständigkeit oder Richtigkeit.
Kontakt: Rainer Krienke krienke@uni-koblenz.de . Meine Webseiten an der Uni Koblenz oder privat.
Version: $Revision: 0.78 $